Time;durP1;ratioP1;P1;durP2;ratioP2;P2;SDS_P1;SDS_P2;PMS_P1;PMS_P2;Temp;Humidity;BMP_temperature;BMP_pressure;BME280_temperature;BME280_humidity;BME280_pressure;Samples;Min_cycle;Max_cycle;Signal;HPM_P1;HPM_P2
2021/12/20 05:02:21;;;;;;;33.60;11.50;;;2.80;99.70;;;;;;4934979;29;20178;-62
2021/12/20 05:04:48;;;;;;;35.90;11.50;;;2.80;99.70;;;;;;4934530;29;20205;-64
2021/12/20 05:07:15;;;;;;;40.17;12.07;;;2.70;99.70;;;;;;4934712;29;20944;-65
2021/12/20 05:09:42;;;;;;;31.67;11.17;;;2.70;99.70;;;;;;4934615;29;20476;-64
2021/12/20 05:12:12;;;;;;;35.80;12.60;;;2.70;99.70;;;;;;4934584;29;20456;-67
2021/12/20 05:14:40;;;;;;;33.20;12.10;;;2.70;99.70;;;;;;4934276;29;20489;-62
2021/12/20 05:17:06;;;;;;;36.70;11.03;;;2.60;99.70;;;;;;4934560;29;20504;-62
2021/12/20 05:19:35;;;;;;;35.97;12.43;;;2.70;99.70;;;;;;4934409;29;20896;-63
2021/12/20 05:22:01;;;;;;;37.20;12.00;;;2.80;99.70;;;;;;4934670;29;20820;-64
2021/12/20 05:24:28;;;;;;;32.03;11.60;;;2.90;99.70;;;;;;4934099;29;20452;-64
2021/12/20 05:26:55;;;;;;;34.33;12.47;;;2.90;99.70;;;;;;4934454;29;20453;-64
2021/12/20 05:29:22;;;;;;;34.63;12.77;;;2.80;99.70;;;;;;4933185;29;20484;-63
2021/12/20 05:31:49;;;;;;;38.17;14.17;;;2.90;99.70;;;;;;4934365;29;20448;-62
2021/12/20 05:34:16;;;;;;;35.83;12.60;;;2.80;99.70;;;;;;4933968;29;20479;-64
2021/12/20 05:36:44;;;;;;;37.70;12.30;;;2.70;99.70;;;;;;4934286;29;20449;-64
2021/12/20 05:39:11;;;;;;;34.93;12.43;;;2.70;99.70;;;;;;4933914;29;20477;-64
2021/12/20 05:41:38;;;;;;;37.20;13.47;;;2.80;99.70;;;;;;4933957;29;20465;-63
2021/12/20 05:44:06;;;;;;;35.40;13.20;;;2.70;99.70;;;;;;4934194;29;20453;-65
2021/12/20 05:46:33;;;;;;;34.97;12.60;;;2.80;99.70;;;;;;4933591;29;20496;-64
2021/12/20 05:49:00;;;;;;;37.50;12.57;;;3.00;99.70;;;;;;4934078;29;20476;-64
2021/12/20 05:51:27;;;;;;;41.80;12.47;;;2.90;99.70;;;;;;4933853;29;20453;-64
2021/12/20 05:53:55;;;;;;;32.03;11.40;;;2.70;99.70;;;;;;4933679;29;20458;-59
2021/12/20 05:56:22;;;;;;;37.00;11.33;;;2.70;99.70;;;;;;4924165;29;21008;-65
2021/12/20 05:58:49;;;;;;;34.30;12.00;;;2.90;99.70;;;;;;4928021;29;20500;-64
2021/12/20 06:01:15;;;;;;;35.60;12.00;;;3.00;99.70;;;;;;4929237;29;20469;-61
2021/12/20 06:03:42;;;;;;;37.70;11.50;;;2.90;99.70;;;;;;4927788;29;20468;-63
2021/12/20 06:06:09;;;;;;;39.57;13.17;;;2.70;99.70;;;;;;4929744;29;20521;-60
2021/12/20 06:08:36;;;;;;;34.67;12.43;;;3.00;99.70;;;;;;4926419;29;20469;-65
2021/12/20 06:11:04;;;;;;;35.40;12.20;;;2.90;99.70;;;;;;4931439;29;20516;-64
2021/12/20 06:13:31;;;;;;;34.80;12.70;;;2.80;99.70;;;;;;4953477;23;20489;-62
2021/12/20 06:15:57;;;;;;;37.87;11.80;;;2.80;99.70;;;;;;4930876;29;20532;-62
2021/12/20 06:18:24;;;;;;;40.10;13.13;;;2.70;99.70;;;;;;4932495;29;20508;-61
2021/12/20 06:20:51;;;;;;;37.30;12.93;;;2.70;99.70;;;;;;4932972;29;20831;-61
2021/12/20 06:23:17;;;;;;;37.13;12.70;;;2.60;99.70;;;;;;4932149;29;20476;-63
2021/12/20 06:25:44;;;;;;;35.60;13.30;;;2.70;99.70;;;;;;4932075;29;20512;-62
2021/12/20 06:28:12;;;;;;;35.40;12.50;;;2.90;99.70;;;;;;4933749;29;20457;-59
2021/12/20 06:30:39;;;;;;;37.03;12.60;;;2.80;99.70;;;;;;4933676;29;20830;-59
2021/12/20 06:33:07;;;;;;;37.87;13.90;;;2.70;99.70;;;;;;4933628;29;20512;-62
2021/12/20 06:35:34;;;;;;;34.37;13.10;;;2.60;99.70;;;;;;4933102;29;20928;-60
2021/12/20 06:38:02;;;;;;;35.37;12.43;;;2.60;99.70;;;;;;4933739;29;20460;-61
2021/12/20 06:40:32;;;;;;;35.40;12.40;;;2.70;99.70;;;;;;4935254;29;20885;-62
2021/12/20 06:42:59;;;;;;;34.47;12.90;;;2.70;99.70;;;;;;4936962;29;20475;-62
2021/12/20 06:45:29;;;;;;;37.00;13.03;;;2.70;99.70;;;;;;4936680;29;20452;-61
2021/12/20 06:47:56;;;;;;;36.73;12.63;;;2.70;99.70;;;;;;4937291;29;20453;-62
2021/12/20 06:50:24;;;;;;;33.23;11.57;;;2.90;99.70;;;;;;4937084;29;20504;-63
2021/12/20 06:52:51;;;;;;;33.20;11.67;;;3.00;99.70;;;;;;4937259;29;20473;-61
2021/12/20 06:55:17;;;;;;;35.70;12.07;;;2.90;99.70;;;;;;4936479;29;20487;-62
2021/12/20 06:57:44;;;;;;;37.67;13.17;;;2.80;99.70;;;;;;4936710;29;20453;-61
2021/12/20 07:00:12;;;;;;;38.33;13.37;;;2.80;99.70;;;;;;4936980;29;20847;-61
2021/12/20 07:02:40;;;;;;;41.03;14.63;;;2.70;99.70;;;;;;4936799;29;20476;-61
2021/12/20 07:05:07;;;;;;;37.47;13.63;;;2.70;99.70;;;;;;4936688;29;20504;-63
2021/12/20 07:07:35;;;;;;;37.60;14.47;;;2.70;99.70;;;;;;4936850;29;20449;-62
2021/12/20 07:10:01;;;;;;;39.67;14.57;;;2.80;99.70;;;;;;4936458;29;20544;-59
2021/12/20 07:12:29;;;;;;;45.50;14.47;;;2.80;99.70;;;;;;4936555;29;20484;-62
2021/12/20 07:14:56;;;;;;;42.17;15.43;;;2.80;99.70;;;;;;4936313;29;20461;-60
2021/12/20 07:17:23;;;;;;;44.23;15.87;;;2.70;99.70;;;;;;4936554;29;20548;-59
2021/12/20 07:19:51;;;;;;;43.30;16.30;;;2.80;99.70;;;;;;4936628;29;20968;-61
2021/12/20 07:22:17;;;;;;;41.37;15.00;;;2.70;99.70;;;;;;4934195;29;20453;-61
2021/12/20 07:24:44;;;;;;;40.70;15.00;;;2.80;99.70;;;;;;4934199;29;20449;-61
2021/12/20 07:27:11;;;;;;;38.67;13.67;;;2.70;99.70;;;;;;4934555;29;20824;-62
2021/12/20 07:29:39;;;;;;;36.60;12.93;;;2.80;99.70;;;;;;4934517;29;20449;-61
2021/12/20 07:32:06;;;;;;;38.90;11.80;;;2.90;99.70;;;;;;4934767;29;20457;-63
2021/12/20 07:34:33;;;;;;;40.50;13.20;;;2.90;99.70;;;;;;4934089;29;20480;-61
2021/12/20 07:37:01;;;;;;;35.13;12.97;;;2.90;99.70;;;;;;4935819;29;20488;-62
2021/12/20 07:39:28;;;;;;;35.63;12.30;;;3.00;99.70;;;;;;4936114;29;20453;-62
2021/12/20 07:41:55;;;;;;;41.20;14.27;;;3.00;99.70;;;;;;4936360;29;20956;-62
2021/12/20 07:44:22;;;;;;;48.67;16.60;;;2.90;99.70;;;;;;4935525;29;21063;-62
2021/12/20 07:46:49;;;;;;;44.43;15.30;;;3.00;99.70;;;;;;4936280;29;20445;-61
2021/12/20 07:49:15;;;;;;;39.60;14.33;;;2.90;99.70;;;;;;4936038;29;20460;-59
2021/12/20 07:51:42;;;;;;;47.10;14.33;;;2.90;99.70;;;;;;4935503;29;20551;-63
2021/12/20 07:54:10;;;;;;;37.13;13.80;;;2.90;99.70;;;;;;4935765;29;20477;-60
2021/12/20 07:56:37;;;;;;;47.80;14.00;;;2.90;99.70;;;;;;4938104;29;20489;-61
2021/12/20 07:59:04;;;;;;;38.67;13.30;;;3.00;99.70;;;;;;4936115;29;20472;-61
2021/12/20 08:01:31;;;;;;;41.00;14.17;;;3.00;99.70;;;;;;4935923;29;20456;-63
2021/12/20 08:03:58;;;;;;;40.93;15.77;;;3.10;99.70;;;;;;4935855;29;20477;-62
2021/12/20 08:06:25;;;;;;;39.60;14.20;;;3.00;99.70;;;;;;4933802;29;20861;-62
2021/12/20 08:08:51;;;;;;;37.47;14.30;;;3.00;99.70;;;;;;4936060;29;20488;-62
2021/12/20 08:11:19;;;;;;;38.67;14.53;;;3.00;99.70;;;;;;4935926;29;20458;-62
2021/12/20 08:13:46;;;;;;;40.23;12.90;;;3.00;99.70;;;;;;4936518;29;20481;-62
2021/12/20 08:16:13;;;;;;;39.77;13.10;;;3.00;99.70;;;;;;4936185;29;20916;-60
2021/12/20 08:18:41;;;;;;;38.00;14.47;;;3.10;99.70;;;;;;4936481;29;20945;-62
2021/12/20 08:21:11;;;;;;;36.73;12.97;;;3.00;99.70;;;;;;4938977;29;20445;-61
2021/12/20 08:23:40;;;;;;;42.33;14.07;;;3.00;99.70;;;;;;4936427;29;20976;-62
2021/12/20 08:26:08;;;;;;;37.00;12.80;;;3.10;99.70;;;;;;4936981;29;20457;-65
2021/12/20 08:28:36;;;;;;;36.93;12.90;;;3.00;99.70;;;;;;4935996;29;20826;-60
2021/12/20 08:31:04;;;;;;;41.50;13.60;;;3.00;99.70;;;;;;4937261;29;20464;-60
2021/12/20 08:33:32;;;;;;;39.70;13.23;;;3.10;99.70;;;;;;4936350;29;20477;-62
2021/12/20 08:35:59;;;;;;;40.70;13.47;;;3.10;99.70;;;;;;4936258;29;20489;-63
2021/12/20 08:38:26;;;;;;;42.47;13.97;;;3.00;99.70;;;;;;4934803;29;20453;-61
2021/12/20 08:40:53;;;;;;;41.50;13.77;;;3.10;99.70;;;;;;4935548;29;20476;-62
2021/12/20 08:43:20;;;;;;;37.77;14.80;;;3.00;99.70;;;;;;4936254;29;20473;-61
2021/12/20 08:45:49;;;;;;;40.20;13.77;;;3.00;99.70;;;;;;4935349;29;20453;-61
2021/12/20 08:48:16;;;;;;;40.27;14.20;;;3.10;99.70;;;;;;4936470;28;20452;-62
2021/12/20 08:50:43;;;;;;;42.97;15.87;;;3.10;99.70;;;;;;4935935;29;20453;-62
2021/12/20 08:53:10;;;;;;;39.10;13.73;;;3.10;99.70;;;;;;4936953;29;20484;-61
2021/12/20 08:55:38;;;;;;;35.43;12.97;;;3.10;99.70;;;;;;4935119;29;20531;-60
2021/12/20 08:58:06;;;;;;;44.90;14.67;;;3.20;99.70;;;;;;4936476;29;20987;-63
2021/12/20 09:00:36;;;;;;;39.00;14.30;;;3.10;99.70;;;;;;4935487;29;20978;-62
2021/12/20 09:03:04;;;;;;;46.60;15.07;;;3.10;99.70;;;;;;4936352;29;21015;-61
2021/12/20 09:05:34;;;;;;;38.30;13.60;;;3.20;99.70;;;;;;4935187;29;20457;-62
2021/12/20 09:08:01;;;;;;;41.70;15.60;;;3.20;99.70;;;;;;4936595;29;20449;-61
2021/12/20 09:10:33;;;;;;;43.23;14.70;;;3.30;99.70;;;;;;4935620;29;20453;-61
2021/12/20 09:13:00;;;;;;;38.97;14.80;;;3.30;99.70;;;;;;4936793;29;20988;-60
2021/12/20 09:15:27;;;;;;;32.97;12.20;;;3.40;99.70;;;;;;4935227;29;20831;-62
2021/12/20 09:17:55;;;;;;;37.83;12.87;;;3.40;99.70;;;;;;4936578;29;20464;-62
2021/12/20 09:20:26;;;;;;;35.63;12.73;;;3.40;99.70;;;;;;4935601;29;20464;-62
2021/12/20 09:22:54;;;;;;;39.80;15.37;;;3.50;99.70;;;;;;4936191;29;20484;-62
2021/12/20 09:25:23;;;;;;;39.23;14.40;;;3.50;99.70;;;;;;4934592;29;20489;-62
2021/12/20 09:27:50;;;;;;;57.47;17.80;;;3.50;99.70;;;;;;4935618;29;20456;-62
2021/12/20 09:30:18;;;;;;;44.37;16.80;;;3.70;99.70;;;;;;4934233;29;20457;-62
2021/12/20 09:32:45;;;;;;;42.17;16.50;;;3.70;99.70;;;;;;4934832;29;20475;-60
2021/12/20 09:35:12;;;;;;;47.13;15.80;;;3.50;99.70;;;;;;4934943;29;21073;-62
2021/12/20 09:37:41;;;;;;;34.87;13.17;;;3.60;99.70;;;;;;4936256;29;20496;-62
2021/12/20 09:40:12;;;;;;;35.47;12.93;;;3.60;99.70;;;;;;4935475;29;20508;-60
2021/12/20 09:42:47;;;;;;;39.37;13.97;;;3.60;99.70;;;;;;4935911;29;20483;-61
2021/12/20 09:45:18;;;;;;;39.90;14.77;;;3.70;99.70;;;;;;4938272;29;20808;-61
2021/12/20 09:47:45;;;;;;;36.43;13.40;;;3.70;99.70;;;;;;4945993;29;20437;-62
2021/12/20 09:50:12;;;;;;;42.47;14.80;;;3.80;99.70;;;;;;4934998;29;20453;-61
2021/12/20 09:52:40;;;;;;;41.77;14.27;;;3.80;99.70;;;;;;4936192;29;20469;-60
2021/12/20 09:55:08;;;;;;;37.73;12.70;;;3.80;99.70;;;;;;4935832;29;20461;-61
2021/12/20 09:57:36;;;;;;;34.47;12.90;;;3.80;99.70;;;;;;4922127;29;20491;-61
2021/12/20 10:00:06;;;;;;;34.43;12.53;;;3.70;99.70;;;;;;4936422;29;20524;-62
2021/12/20 10:02:33;;;;;;;36.27;12.17;;;3.90;99.70;;;;;;4934886;29;20472;-62
2021/12/20 10:04:59;;;;;;;38.70;13.73;;;4.00;99.70;;;;;;4939836;29;20464;-62
2021/12/20 10:07:28;;;;;;;37.80;13.20;;;4.10;99.70;;;;;;4935045;29;20467;-62
2021/12/20 10:10:00;;;;;;;37.43;13.13;;;4.20;99.70;;;;;;4936282;29;21030;-62
2021/12/20 10:12:28;;;;;;;34.90;12.63;;;4.40;99.70;;;;;;4928722;29;20478;-63
2021/12/20 10:15:02;;;;;;;33.20;12.87;;;4.60;99.70;;;;;;4935321;29;20448;-62
2021/12/20 10:17:32;;;;;;;33.93;12.37;;;4.80;99.70;;;;;;4938752;29;20489;-62
2021/12/20 10:20:15;;;;;;;31.37;12.57;;;4.90;99.70;;;;;;4939934;29;20451;-62
2021/12/20 10:22:42;;;;;;;32.83;11.20;;;5.10;99.70;;;;;;4938667;29;20512;-62
2021/12/20 10:25:24;;;;;;;29.10;11.60;;;5.10;99.70;;;;;;4939329;29;20469;-62
2021/12/20 10:27:50;;;;;;;26.80;10.00;;;5.20;99.70;;;;;;4937787;29;20442;-62
2021/12/20 10:30:24;;;;;;;28.50;10.83;;;5.30;99.70;;;;;;4953334;29;20460;-63
2021/12/20 10:32:51;;;;;;;32.87;11.57;;;5.20;99.70;;;;;;4953430;28;20563;-60
2021/12/20 10:35:29;;;;;;;25.73;9.83;;;5.00;99.70;;;;;;4938714;29;20484;-61
2021/12/20 10:37:59;;;;;;;26.30;9.83;;;5.00;99.70;;;;;;4939162;29;20492;-62
2021/12/20 10:40:27;;;;;;;24.90;9.17;;;5.00;99.70;;;;;;4927195;29;20459;-61
2021/12/20 10:42:56;;;;;;;26.50;9.20;;;5.00;99.70;;;;;;4938562;29;20988;-64
2021/12/20 10:45:25;;;;;;;29.23;9.67;;;5.00;99.70;;;;;;4938170;28;20457;-60
2021/12/20 10:47:52;;;;;;;28.73;10.97;;;5.00;99.70;;;;;;4938654;29;20457;-62
2021/12/20 10:50:21;;;;;;;29.80;11.53;;;5.00;99.70;;;;;;4938971;29;20457;-59
2021/12/20 10:52:48;;;;;;;33.17;11.30;;;4.70;99.70;;;;;;4937711;29;20996;-62
2021/12/20 10:55:16;;;;;;;32.90;12.07;;;4.70;99.70;;;;;;4938839;29;20457;-64
2021/12/20 10:57:44;;;;;;;27.53;10.47;;;4.60;99.70;;;;;;4937123;29;20837;-63
2021/12/20 11:00:17;;;;;;;34.13;11.70;;;4.50;99.70;;;;;;4942401;29;20463;-63
2021/12/20 11:03:23;;;;;;;35.10;11.53;;;4.50;99.70;;;;;;4954313;28;20472;-62
2021/12/20 11:06:13;;;;;;;33.33;11.27;;;4.70;99.70;;;;;;4929466;29;20508;-63
2021/12/20 11:11:25;;;;;;;32.20;11.60;;;4.80;99.70;;;;;;4939165;29;20421;-63
2021/12/20 11:13:53;;;;;;;31.37;10.90;;;4.90;99.70;;;;;;4937697;29;20812;-62
2021/12/20 11:16:28;;;;;;;28.90;11.43;;;5.00;99.70;;;;;;4938074;29;20536;-61
2021/12/20 11:19:17;;;;;;;32.17;11.00;;;4.90;99.70;;;;;;4927233;29;20453;-63
2021/12/20 11:21:53;;;;;;;28.87;11.13;;;4.90;99.70;;;;;;4938970;29;20940;-61
2021/12/20 11:24:21;;;;;;;28.63;10.27;;;5.20;99.70;;;;;;4937103;29;20469;-62
2021/12/20 11:26:49;;;;;;;30.63;10.23;;;5.30;99.70;;;;;;4937880;29;20452;-61
2021/12/20 11:29:17;;;;;;;29.77;11.40;;;5.40;99.70;;;;;;4937561;29;20453;-61
2021/12/20 11:31:46;;;;;;;22.10;8.93;;;5.40;99.70;;;;;;4938820;29;20489;-60
2021/12/20 11:34:13;;;;;;;23.80;7.63;;;5.50;99.70;;;;;;4936821;29;20556;-62
2021/12/20 11:36:40;;;;;;;17.90;7.33;;;5.40;99.70;;;;;;4938713;29;20911;-62
2021/12/20 11:39:09;;;;;;;18.50;7.50;;;5.30;99.70;;;;;;4938770;29;20472;-61
2021/12/20 11:41:37;;;;;;;23.57;8.73;;;5.40;99.70;;;;;;4938485;29;20483;-63
2021/12/20 11:44:06;;;;;;;23.13;9.33;;;5.40;99.70;;;;;;4937086;29;21006;-63
2021/12/20 11:46:42;;;;;;;25.37;8.40;;;5.40;99.70;;;;;;4938267;29;20505;-62
2021/12/20 11:49:09;;;;;;;23.17;9.10;;;5.30;99.70;;;;;;4937166;29;20464;-63
2021/12/20 11:51:55;;;;;;;25.27;9.00;;;5.20;99.70;;;;;;4938080;29;20472;-60
2021/12/20 11:54:47;;;;;;;22.90;8.80;;;5.10;99.70;;;;;;4936405;29;20488;-63
2021/12/20 11:57:44;;;;;;;25.57;9.43;;;5.10;99.70;;;;;;4922878;29;20481;-62
2021/12/20 12:00:27;;;;;;;21.80;8.83;;;5.00;99.70;;;;;;4937160;29;20521;-63
2021/12/20 12:02:58;;;;;;;25.53;8.97;;;4.90;99.70;;;;;;4936147;29;20473;-60
2021/12/20 12:05:37;;;;;;;27.10;9.80;;;4.90;99.70;;;;;;4951375;29;20959;-65
2021/12/20 12:08:25;;;;;;;26.73;9.87;;;4.90;99.70;;;;;;4952031;29;20455;-62
2021/12/20 12:10:53;;;;;;;27.17;11.10;;;5.00;99.70;;;;;;4953063;28;21015;-64
2021/12/20 12:13:23;;;;;;;27.93;10.43;;;5.00;99.70;;;;;;4964536;23;21798;-68
2021/12/20 12:15:59;;;;;;;29.20;10.93;;;5.10;99.70;;;;;;4936034;29;20467;-68
2021/12/20 12:18:46;;;;;;;25.43;9.93;;;5.10;99.70;;;;;;4937388;29;20492;-68
2021/12/20 12:21:39;;;;;;;30.47;11.30;;;5.20;99.70;;;;;;4936131;29;20449;-68
2021/12/20 12:24:08;;;;;;;29.30;11.50;;;5.10;99.70;;;;;;4924954;29;20470;-68
2021/12/20 12:26:36;;;;;;;31.93;10.90;;;5.20;99.70;;;;;;4929250;29;20516;-68
2021/12/20 12:29:05;;;;;;;27.93;10.90;;;5.20;99.70;;;;;;4928782;29;20456;-68
2021/12/20 12:31:53;;;;;;;26.73;9.77;;;5.20;99.70;;;;;;4934777;29;20465;-68
2021/12/20 12:34:23;;;;;;;32.47;11.00;;;5.10;99.70;;;;;;4916166;29;20474;-68
2021/12/20 12:36:50;;;;;;;34.13;10.93;;;5.10;99.70;;;;;;4932760;29;20496;-68
2021/12/20 12:39:22;;;;;;;23.67;8.63;;;5.10;99.70;;;;;;4934922;29;20481;-68
2021/12/20 12:41:54;;;;;;;18.20;8.30;;;5.20;99.70;;;;;;4934736;29;20456;-68
2021/12/20 12:44:24;;;;;;;23.60;7.57;;;5.20;99.70;;;;;;4934303;29;20560;-68
2021/12/20 12:47:03;;;;;;;23.10;8.50;;;5.20;99.70;;;;;;4934603;29;20967;-67
2021/12/20 12:49:53;;;;;;;22.37;8.30;;;5.20;99.70;;;;;;4934833;29;20453;-67
2021/12/20 12:52:50;;;;;;;24.83;9.47;;;5.30;99.70;;;;;;4914606;29;20465;-68
2021/12/20 12:55:28;;;;;;;22.60;8.77;;;5.40;99.70;;;;;;4901038;29;20465;-68
2021/12/20 12:57:55;;;;;;;23.80;9.10;;;5.40;99.70;;;;;;4933465;29;20878;-68
2021/12/20 13:00:29;;;;;;;22.60;9.53;;;5.40;99.70;;;;;;4933647;29;20461;-68
2021/12/20 13:03:07;;;;;;;23.47;8.53;;;5.30;99.70;;;;;;4934306;29;20839;-68
2021/12/20 13:05:37;;;;;;;32.00;11.00;;;5.30;99.70;;;;;;4912406;29;20512;-68
2021/12/20 13:08:04;;;;;;;23.77;9.97;;;5.30;99.70;;;;;;4934062;29;20453;-68
2021/12/20 13:10:36;;;;;;;32.17;10.00;;;5.20;99.70;;;;;;4931820;29;20449;-67
2021/12/20 13:13:08;;;;;;;28.23;10.30;;;5.20;99.70;;;;;;4933951;29;20481;-68
2021/12/20 13:15:39;;;;;;;27.70;10.60;;;5.20;99.70;;;;;;4919574;29;20509;-68
2021/12/20 13:18:09;;;;;;;27.30;11.50;;;5.10;99.70;;;;;;4924208;29;20978;-68
2021/12/20 13:20:46;;;;;;;27.10;10.40;;;5.20;99.70;;;;;;4915185;29;20472;-68
2021/12/20 13:23:14;;;;;;;27.53;10.03;;;5.20;99.70;;;;;;4933784;29;20900;-68
2021/12/20 13:25:46;;;;;;;30.13;11.23;;;5.20;99.70;;;;;;4933621;29;20476;-68
2021/12/20 13:28:15;;;;;;;25.43;9.53;;;5.20;99.70;;;;;;4933966;29;20472;-68
2021/12/20 13:30:45;;;;;;;28.20;9.80;;;5.20;99.70;;;;;;4914380;29;20464;-68
2021/12/20 13:33:13;;;;;;;22.67;8.97;;;5.10;99.70;;;;;;4932494;29;20910;-68
2021/12/20 13:35:42;;;;;;;25.20;8.63;;;5.20;99.70;;;;;;4914024;29;20453;-68
2021/12/20 13:38:21;;;;;;;20.80;8.13;;;5.20;99.70;;;;;;4933756;29;20633;-68
2021/12/20 13:40:54;;;;;;;21.30;8.17;;;5.10;99.70;;;;;;4933934;29;20449;-68
2021/12/20 13:43:31;;;;;;;23.03;7.77;;;5.10;99.70;;;;;;4933787;29;20477;-68
2021/12/20 13:46:17;;;;;;;20.63;8.13;;;5.10;99.70;;;;;;4933460;29;20460;-68
2021/12/20 13:48:49;;;;;;;20.43;7.80;;;5.10;99.70;;;;;;4931787;29;20869;-68
2021/12/20 13:51:17;;;;;;;20.97;8.20;;;5.10;99.70;;;;;;4933577;29;20464;-68
2021/12/20 13:53:45;;;;;;;20.57;7.37;;;5.10;99.70;;;;;;4932168;29;20833;-67
2021/12/20 13:56:11;;;;;;;25.77;7.40;;;5.20;99.70;;;;;;4932373;29;20456;-68
2021/12/20 13:58:39;;;;;;;14.53;5.67;;;5.20;99.70;;;;;;4924996;29;20565;-68
2021/12/20 14:01:06;;;;;;;13.83;5.10;;;5.20;99.70;;;;;;4921060;29;20490;-68
2021/12/20 14:03:39;;;;;;;14.17;4.63;;;5.10;99.70;;;;;;4915621;29;20479;-67
2021/12/20 14:06:05;;;;;;;15.97;5.17;;;5.00;99.70;;;;;;4910135;29;20990;-68
2021/12/20 14:08:34;;;;;;;15.53;5.40;;;5.10;99.70;;;;;;4916340;29;20454;-68
2021/12/20 14:11:01;;;;;;;14.20;4.70;;;5.00;99.70;;;;;;4905886;29;20463;-68
2021/12/20 14:13:29;;;;;;;12.80;4.80;;;4.90;99.70;;;;;;4918745;29;20992;-68
2021/12/20 14:16:02;;;;;;;13.37;5.20;;;4.80;99.70;;;;;;4928890;29;20452;-69
2021/12/20 14:18:36;;;;;;;14.00;5.00;;;4.90;99.70;;;;;;4913249;29;20486;-68
2021/12/20 14:21:05;;;;;;;16.03;5.40;;;4.80;99.70;;;;;;4909667;29;20502;-68
2021/12/20 14:23:35;;;;;;;10.90;4.90;;;4.70;99.70;;;;;;4915695;29;20482;-68
2021/12/20 14:26:05;;;;;;;15.00;6.10;;;4.60;99.70;;;;;;4925558;29;20456;-68
2021/12/20 14:28:35;;;;;;;14.70;4.90;;;4.60;99.70;;;;;;4930716;29;20472;-68
2021/12/20 14:31:07;;;;;;;14.77;4.80;;;4.40;99.70;;;;;;4921341;29;20470;-68
2021/12/20 14:33:35;;;;;;;14.30;5.37;;;4.40;99.70;;;;;;4920169;29;20533;-68
2021/12/20 14:36:07;;;;;;;14.03;5.10;;;4.30;99.70;;;;;;4932679;29;20520;-68
2021/12/20 14:38:38;;;;;;;12.27;5.80;;;4.20;99.70;;;;;;4921020;29;20489;-68
2021/12/20 14:41:23;;;;;;;30.00;12.10;;;4.10;99.70;;;;;;4915357;29;20458;-69
2021/12/20 14:43:51;;;;;;;24.17;9.57;;;4.00;99.70;;;;;;4918821;29;20864;-68
2021/12/20 14:46:27;;;;;;;22.23;9.03;;;4.00;99.70;;;;;;4931725;29;20953;-68
2021/12/20 14:48:58;;;;;;;17.20;7.57;;;3.90;99.70;;;;;;4914430;29;20512;-68
2021/12/20 14:51:27;;;;;;;14.10;6.50;;;3.90;99.70;;;;;;4929844;29;20462;-68
2021/12/20 14:54:12;;;;;;;17.50;6.20;;;3.60;99.70;;;;;;4919564;29;20916;-68
2021/12/20 14:56:40;;;;;;;17.23;6.13;;;3.50;99.70;;;;;;4932244;29;20957;-68
2021/12/20 14:59:09;;;;;;;14.57;5.23;;;3.30;99.70;;;;;;4932667;29;21008;-68
2021/12/20 15:01:37;;;;;;;15.73;6.33;;;3.20;99.70;;;;;;4931025;29;20460;-68
2021/12/20 15:04:03;;;;;;;15.60;6.33;;;3.10;99.70;;;;;;4925119;29;20578;-68
2021/12/20 15:06:39;;;;;;;16.23;6.20;;;3.00;99.70;;;;;;4916786;29;20825;-68
2021/12/20 15:09:06;;;;;;;26.40;9.33;;;3.00;99.70;;;;;;4913383;29;20459;-68
2021/12/20 15:11:34;;;;;;;16.53;7.57;;;2.90;99.70;;;;;;4920021;29;20458;-68
2021/12/20 15:14:02;;;;;;;20.63;8.30;;;3.00;99.70;;;;;;4925338;29;20485;-68
2021/12/20 15:16:29;;;;;;;18.17;7.83;;;2.90;99.70;;;;;;4917511;29;21050;-68
2021/12/20 15:18:56;;;;;;;20.20;7.53;;;2.90;99.70;;;;;;4922916;29;20485;-68
2021/12/20 15:21:23;;;;;;;16.10;7.70;;;2.80;99.70;;;;;;4909199;29;20897;-68
2021/12/20 15:23:49;;;;;;;21.50;7.60;;;2.70;99.70;;;;;;4911466;29;20469;-67
2021/12/20 15:26:16;;;;;;;17.03;7.10;;;2.60;99.70;;;;;;4929815;29;20975;-67
2021/12/20 15:28:44;;;;;;;21.00;8.90;;;2.50;99.70;;;;;;4930185;29;20448;-68
2021/12/20 15:31:11;;;;;;;31.23;12.30;;;2.40;99.70;;;;;;4914325;29;20936;-68
2021/12/20 15:33:38;;;;;;;32.50;12.50;;;2.30;99.70;;;;;;4936005;29;20478;-67
2021/12/20 15:36:05;;;;;;;45.17;17.50;;;2.30;99.70;;;;;;4930265;29;20801;-68
2021/12/20 15:38:32;;;;;;;98.43;32.10;;;2.20;99.70;;;;;;4921333;29;20571;-68
2021/12/20 15:40:59;;;;;;;104.23;35.30;;;2.20;99.70;;;;;;4918680;29;20965;-67
2021/12/20 15:43:26;;;;;;;61.20;21.00;;;2.10;99.70;;;;;;4925768;29;20468;-68
2021/12/20 15:45:54;;;;;;;94.13;30.80;;;2.10;99.70;;;;;;4923973;29;20466;-67
2021/12/20 15:48:23;;;;;;;48.97;19.97;;;2.10;99.70;;;;;;4922183;29;20442;-67
2021/12/20 15:50:52;;;;;;;55.00;19.40;;;2.00;99.70;;;;;;4915498;29;21021;-67
2021/12/20 15:53:18;;;;;;;47.37;17.10;;;2.00;99.70;;;;;;4918199;29;20484;-67
2021/12/20 15:55:46;;;;;;;52.00;16.90;;;1.90;99.70;;;;;;4931020;29;20459;-67
2021/12/20 15:58:14;;;;;;;58.80;17.20;;;1.90;99.70;;;;;;4925179;29;20492;-68
2021/12/20 16:00:41;;;;;;;45.13;15.43;;;2.00;99.70;;;;;;4921526;29;20555;-68
2021/12/20 16:03:09;;;;;;;55.83;17.50;;;1.90;99.70;;;;;;4918407;29;20514;-67
2021/12/20 16:05:36;;;;;;;47.27;15.93;;;2.00;99.70;;;;;;4920531;29;20512;-67
2021/12/20 16:08:03;;;;;;;54.70;17.20;;;1.90;99.70;;;;;;4923696;29;20513;-67
2021/12/20 16:10:30;;;;;;;56.27;18.97;;;1.80;99.70;;;;;;4925298;29;20457;-68
2021/12/20 16:12:57;;;;;;;46.97;18.20;;;1.90;99.70;;;;;;4916783;29;20451;-68
2021/12/20 16:15:24;;;;;;;44.90;15.37;;;1.90;99.70;;;;;;4921967;29;20472;-68
2021/12/20 16:17:52;;;;;;;43.50;14.60;;;1.90;99.70;;;;;;4916660;29;20533;-68
2021/12/20 16:20:21;;;;;;;35.70;12.10;;;1.80;99.70;;;;;;4918607;29;20460;-67
2021/12/20 16:22:48;;;;;;;36.80;13.30;;;1.60;99.70;;;;;;4915226;29;20457;-67
2021/12/20 16:25:17;;;;;;;38.00;13.17;;;1.70;99.70;;;;;;4927136;29;20877;-67
2021/12/20 16:27:46;;;;;;;41.77;14.13;;;1.70;99.70;;;;;;4925252;29;20450;-67
2021/12/20 16:30:14;;;;;;;38.10;11.57;;;1.70;99.70;;;;;;4926686;29;20485;-67
2021/12/20 16:32:42;;;;;;;36.57;12.13;;;1.60;99.70;;;;;;4925327;29;20461;-67
2021/12/20 16:35:11;;;;;;;38.30;11.70;;;1.50;99.70;;;;;;4925199;29;20465;-68
2021/12/20 16:37:39;;;;;;;56.23;17.13;;;1.40;99.70;;;;;;4926020;29;20529;-67
2021/12/20 16:40:10;;;;;;;60.33;17.47;;;1.40;99.70;;;;;;4921246;29;20458;-67
2021/12/20 16:42:36;;;;;;;70.50;23.37;;;1.30;99.70;;;;;;4922285;29;20530;-67
2021/12/20 16:45:05;;;;;;;100.97;29.80;;;1.30;99.70;;;;;;4926269;29;20472;-67
2021/12/20 16:47:37;;;;;;;84.70;28.70;;;1.20;99.70;;;;;;4918215;29;20904;-68
2021/12/20 16:50:09;;;;;;;74.50;24.30;;;1.20;99.70;;;;;;4910744;29;20449;-67
2021/12/20 16:52:36;;;;;;;64.30;22.03;;;1.20;99.70;;;;;;4933748;29;20841;-68
2021/12/20 16:55:05;;;;;;;53.10;20.30;;;1.20;99.70;;;;;;4933707;29;20491;-68
2021/12/20 16:57:32;;;;;;;50.93;18.13;;;1.20;99.70;;;;;;4925267;29;20466;-68
2021/12/20 16:59:59;;;;;;;45.00;16.20;;;1.10;99.70;;;;;;4928621;29;20477;-68
2021/12/20 17:02:30;;;;;;;49.17;16.70;;;1.10;99.70;;;;;;4907630;29;20573;-68
2021/12/20 17:05:06;;;;;;;41.37;16.20;;;1.20;99.70;;;;;;4905843;29;20549;-68
2021/12/20 17:07:33;;;;;;;47.73;15.40;;;1.10;99.70;;;;;;4915884;29;20555;-68
2021/12/20 17:10:00;;;;;;;33.33;12.43;;;1.10;99.70;;;;;;4907583;29;20447;-68
2021/12/20 17:12:28;;;;;;;30.90;11.10;;;1.10;99.70;;;;;;4922998;29;20480;-68
2021/12/20 17:14:55;;;;;;;29.03;10.03;;;1.10;99.70;;;;;;4918543;29;20478;-68
2021/12/20 17:17:21;;;;;;;28.20;10.90;;;1.10;99.70;;;;;;4923481;29;20455;-67
2021/12/20 17:19:48;;;;;;;22.80;8.63;;;1.10;99.70;;;;;;4913851;29;20906;-68
2021/12/20 17:22:15;;;;;;;25.67;8.73;;;1.00;99.70;;;;;;4930819;29;20463;-68
2021/12/20 17:24:47;;;;;;;21.27;8.37;;;1.00;99.70;;;;;;4928834;29;20831;-68
2021/12/20 17:27:14;;;;;;;17.80;7.67;;;1.10;99.70;;;;;;4920288;29;20477;-68
2021/12/20 17:29:42;;;;;;;23.53;7.80;;;1.00;99.70;;;;;;4909738;29;20459;-68
2021/12/20 17:32:10;;;;;;;20.37;6.73;;;1.00;99.70;;;;;;4915767;29;20474;-68
2021/12/20 17:34:39;;;;;;;27.50;8.20;;;1.00;99.70;;;;;;4914088;29;20906;-68
2021/12/20 17:37:06;;;;;;;24.77;9.43;;;1.30;99.70;;;;;;4915211;29;20836;-68
2021/12/20 17:39:34;;;;;;;22.37;10.17;;;1.20;99.70;;;;;;4910968;29;20497;-68
2021/12/20 17:42:01;;;;;;;21.30;9.40;;;1.20;99.70;;;;;;4907219;29;20466;-68
2021/12/20 17:44:28;;;;;;;26.57;11.77;;;1.10;99.70;;;;;;4909278;29;20624;-68
2021/12/20 17:46:57;;;;;;;21.73;8.83;;;1.10;99.70;;;;;;4917149;29;20465;-68
2021/12/20 17:49:24;;;;;;;22.60;10.00;;;1.20;99.70;;;;;;4909660;29;20878;-68
2021/12/20 17:51:56;;;;;;;20.87;7.97;;;1.10;99.70;;;;;;4920583;29;20443;-68
2021/12/20 17:54:22;;;;;;;17.40;7.17;;;1.40;99.70;;;;;;4905838;29;20550;-68
2021/12/20 17:56:49;;;;;;;27.47;10.10;;;1.30;99.70;;;;;;4911364;29;20466;-68